createdAt,value
2022-09-29T00:00:00.189Z,51.323471
2022-09-29T00:00:59.156Z,51.323475
2022-09-29T00:01:59.220Z,51.323456
2022-09-29T00:02:59.172Z,51.323452
2022-09-29T00:03:59.102Z,51.323463
2022-09-29T00:04:59.083Z,51.323460
2022-09-29T00:05:59.066Z,51.323471
2022-09-29T00:06:59.081Z,51.323418
2022-09-29T00:07:59.024Z,51.323433
2022-09-29T00:08:59.016Z,51.323456
2022-09-29T00:09:59.023Z,51.323444
2022-09-29T00:10:58.973Z,51.323410
2022-09-29T00:11:58.954Z,51.323414
2022-09-29T00:12:58.935Z,51.323418
2022-09-29T00:13:58.918Z,51.323429
2022-09-29T00:14:58.928Z,51.323418
2022-09-29T00:15:58.924Z,51.323437
2022-09-29T00:16:58.886Z,51.323418
2022-09-29T00:18:13.183Z,51.323456
2022-09-29T00:19:00.827Z,51.323444
2022-09-29T00:19:58.802Z,51.323456
2022-09-29T00:20:58.789Z,51.323429
2022-09-29T00:21:58.796Z,51.323402
2022-09-29T00:22:58.752Z,51.323425
2022-09-29T00:23:58.727Z,51.323418
2022-09-29T00:24:58.710Z,51.323376
2022-09-29T00:25:58.690Z,51.323425
2022-09-29T00:26:58.700Z,51.323399
2022-09-29T00:27:58.660Z,51.323410
2022-09-29T00:28:58.638Z,51.323437
2022-09-29T00:29:58.617Z,51.323418
2022-09-29T00:30:58.601Z,51.323448
2022-09-29T00:31:58.656Z,51.323444
2022-09-29T00:32:58.558Z,51.323425
2022-09-29T00:33:58.542Z,51.323383
2022-09-29T00:34:58.521Z,51.323395
2022-09-29T00:35:58.501Z,51.323441
2022-09-29T00:36:58.509Z,51.323410
2022-09-29T00:37:58.463Z,51.323429
2022-09-29T00:38:58.444Z,51.323444
2022-09-29T00:39:58.428Z,51.323433
2022-09-29T00:40:58.473Z,51.323425
2022-09-29T00:41:58.426Z,51.323433
2022-09-29T00:42:58.364Z,51.323418
2022-09-29T00:43:58.346Z,51.323395
2022-09-29T00:44:58.327Z,51.323376
2022-09-29T00:45:58.339Z,51.323406
2022-09-29T00:46:58.340Z,51.323410
2022-09-29T00:47:58.276Z,51.323410
2022-09-29T00:48:58.258Z,51.323414
2022-09-29T00:49:58.239Z,51.323402
2022-09-29T00:50:58.213Z,51.323395
2022-09-29T00:51:59.228Z,51.323380
2022-09-29T00:52:58.187Z,51.323418
2022-09-29T00:53:58.168Z,51.323421
2022-09-29T00:54:58.149Z,51.323380
2022-09-29T00:55:58.128Z,51.323399
2022-09-29T00:56:58.138Z,51.323402
2022-09-29T00:57:58.088Z,51.323421
2022-09-29T00:58:58.071Z,51.323425
2022-09-29T00:59:58.055Z,51.323402
2022-09-29T01:00:58.090Z,51.323410
2022-09-29T01:01:58.056Z,51.323448
2022-09-29T01:02:58.007Z,51.323444
2022-09-29T01:03:57.978Z,51.323433
2022-09-29T01:04:57.959Z,51.323437
2022-09-29T01:05:57.943Z,51.323414
2022-09-29T01:06:57.945Z,51.323414
2022-09-29T01:07:57.897Z,51.323425
2022-09-29T01:08:57.884Z,51.323441
2022-09-29T01:09:57.869Z,51.323452
2022-09-29T01:10:57.844Z,51.323402
2022-09-29T01:11:57.853Z,51.323406
2022-09-29T01:12:57.809Z,51.323406
2022-09-29T01:13:57.790Z,51.323402
2022-09-29T01:14:57.771Z,51.323414
2022-09-29T01:15:57.790Z,51.323414
2022-09-29T01:16:57.763Z,51.323452
2022-09-29T01:17:57.712Z,51.323402
2022-09-29T01:18:57.695Z,51.323391
2022-09-29T01:20:01.994Z,51.323414
2022-09-29T01:20:59.658Z,51.323429
2022-09-29T01:21:57.666Z,51.323425
2022-09-29T01:22:57.615Z,51.323433
2022-09-29T01:23:57.610Z,51.323429
2022-09-29T01:24:57.583Z,51.323448
2022-09-29T01:25:57.564Z,51.323448
2022-09-29T01:26:57.575Z,51.323414
2022-09-29T01:27:57.526Z,51.323414
2022-09-29T01:28:57.513Z,51.323418
2022-09-29T01:29:57.487Z,51.323452
2022-09-29T01:30:57.474Z,51.323418
2022-09-29T01:31:57.526Z,51.323437
2022-09-29T01:32:57.434Z,51.323433
2022-09-29T01:33:57.418Z,51.323425
2022-09-29T01:34:57.399Z,51.323418
2022-09-29T01:35:57.374Z,51.323414
2022-09-29T01:36:57.384Z,51.323418
2022-09-29T01:37:57.345Z,51.323406
2022-09-29T01:38:57.324Z,51.323418
2022-09-29T01:39:57.316Z,51.323425
2022-09-29T01:40:57.315Z,51.323441
2022-09-29T01:41:57.294Z,51.323418
2022-09-29T01:42:57.252Z,51.323425
2022-09-29T01:43:57.230Z,51.323429
2022-09-29T01:44:57.209Z,51.323437
2022-09-29T01:45:57.236Z,51.323452
2022-09-29T01:46:57.202Z,51.323441
2022-09-29T01:47:57.158Z,51.323414
2022-09-29T01:48:57.141Z,51.323437
2022-09-29T01:49:57.119Z,51.323437
2022-09-29T01:50:57.103Z,51.323414
2022-09-29T01:51:57.104Z,51.323425
2022-09-29T01:52:58.064Z,51.323425
2022-09-29T01:53:57.057Z,51.323433
2022-09-29T01:54:57.037Z,51.323441
2022-09-29T01:55:57.008Z,51.323441
2022-09-29T01:56:57.022Z,51.323448
2022-09-29T01:57:56.972Z,51.323410
2022-09-29T01:58:56.955Z,51.323463
2022-09-29T01:59:56.937Z,51.323395
2022-09-29T02:00:56.968Z,51.323349
2022-09-29T02:02:00.675Z,51.323399
2022-09-29T02:02:57.886Z,51.323441
2022-09-29T02:03:56.874Z,51.323456
2022-09-29T02:04:56.851Z,51.323463
2022-09-29T02:05:56.831Z,51.323425
2022-09-29T02:06:56.843Z,51.323421
2022-09-29T02:07:56.795Z,51.323460
2022-09-29T02:08:56.783Z,51.323334
2022-09-29T02:09:56.765Z,51.323395
2022-09-29T02:10:56.746Z,51.323437
2022-09-29T02:11:56.751Z,51.323421
2022-09-29T02:12:56.702Z,51.323479
2022-09-29T02:13:56.688Z,51.323463
2022-09-29T02:14:56.670Z,51.323463
2022-09-29T02:15:56.689Z,51.323460
2022-09-29T02:16:56.661Z,51.323410
2022-09-29T02:17:56.639Z,51.323402
2022-09-29T02:18:58.615Z,51.323441
2022-09-29T02:19:57.575Z,51.323429
2022-09-29T02:20:56.559Z,51.323429
2022-09-29T02:21:56.579Z,51.323414
2022-09-29T02:22:56.530Z,51.323383
2022-09-29T02:23:56.500Z,51.323421
2022-09-29T02:24:56.482Z,51.323437
2022-09-29T02:25:56.466Z,51.323425
2022-09-29T02:26:56.472Z,51.323368
2022-09-29T02:27:56.423Z,51.323425
2022-09-29T02:28:56.409Z,51.323399
2022-09-29T02:29:56.389Z,51.323456
2022-09-29T02:30:56.369Z,51.323463
2022-09-29T02:31:56.448Z,51.323406
2022-09-29T02:32:56.337Z,51.323452
2022-09-29T02:33:56.324Z,51.323421
2022-09-29T02:34:56.301Z,51.323418
2022-09-29T02:35:56.280Z,51.323425
2022-09-29T02:36:56.293Z,51.323505
2022-09-29T02:37:56.245Z,51.323460
2022-09-29T02:38:56.222Z,51.323471
2022-09-29T02:39:56.216Z,51.323425
2022-09-29T02:40:56.221Z,51.323494
2022-09-29T02:41:57.194Z,51.323414
2022-09-29T02:42:56.151Z,51.323368
2022-09-29T02:43:56.161Z,51.323414
2022-09-29T02:44:56.119Z,51.323372
2022-09-29T02:45:56.144Z,51.323421
2022-09-29T02:46:56.104Z,51.323448
2022-09-29T02:47:56.060Z,51.323429
2022-09-29T02:48:56.043Z,51.323433
2022-09-29T02:49:56.019Z,51.323452
2022-09-29T02:50:56.005Z,51.323429
2022-09-29T02:51:56.014Z,51.323414
2022-09-29T02:52:55.966Z,51.323414
2022-09-29T02:53:55.953Z,51.323418
2022-09-29T02:54:55.928Z,51.323418
2022-09-29T02:55:55.911Z,51.323460
2022-09-29T02:56:55.918Z,51.323441
2022-09-29T02:57:55.875Z,51.323460
2022-09-29T02:58:55.854Z,51.323452
2022-09-29T02:59:55.838Z,51.323441
2022-09-29T03:00:55.886Z,51.323441
2022-09-29T03:01:55.831Z,51.323441
2022-09-29T03:02:55.787Z,51.323425
2022-09-29T03:03:55.780Z,51.323441
2022-09-29T03:04:55.746Z,51.323448
2022-09-29T03:05:55.732Z,51.323441
2022-09-29T03:06:55.735Z,51.323433
2022-09-29T03:07:55.690Z,51.323437
2022-09-29T03:08:55.673Z,51.323463
2022-09-29T03:09:55.659Z,51.323433
2022-09-29T03:10:55.639Z,51.323421
2022-09-29T03:11:55.647Z,51.323475
2022-09-29T03:12:55.602Z,51.323483
2022-09-29T03:13:55.583Z,51.323463
2022-09-29T03:14:55.566Z,51.323437
2022-09-29T03:15:55.595Z,51.323444
2022-09-29T03:16:55.558Z,51.323448
2022-09-29T03:17:55.511Z,51.323444
2022-09-29T03:18:55.495Z,51.323471
2022-09-29T03:19:55.479Z,51.323414
2022-09-29T03:20:55.466Z,51.323452
2022-09-29T03:21:55.470Z,51.323467
2022-09-29T03:22:55.424Z,51.323452
2022-09-29T03:23:57.629Z,51.323456
2022-09-29T03:24:56.392Z,51.323460
2022-09-29T03:25:55.368Z,51.323448
2022-09-29T03:26:55.378Z,51.323448
2022-09-29T03:27:55.335Z,51.323460
2022-09-29T03:28:55.315Z,51.323437
2022-09-29T03:29:55.300Z,51.323456
2022-09-29T03:30:55.277Z,51.323433
2022-09-29T03:31:55.384Z,51.323467
2022-09-29T03:32:55.241Z,51.323467
2022-09-29T03:33:55.225Z,51.323471
2022-09-29T03:34:55.200Z,51.323463
2022-09-29T03:35:55.186Z,51.323479
2022-09-29T03:36:55.194Z,51.323395
2022-09-29T03:37:55.179Z,51.323402
2022-09-29T03:38:55.127Z,51.323463
2022-09-29T03:39:55.109Z,51.323479
2022-09-29T03:40:55.151Z,51.323452
2022-09-29T03:41:55.102Z,51.323429
2022-09-29T03:42:55.057Z,51.323441
2022-09-29T03:43:55.041Z,51.323441
2022-09-29T03:44:55.021Z,51.323441
2022-09-29T03:45:55.061Z,51.323425
2022-09-29T03:46:55.015Z,51.323425
2022-09-29T03:47:54.964Z,51.323463
2022-09-29T03:48:54.949Z,51.323429
2022-09-29T03:49:54.930Z,51.323441
2022-09-29T03:50:54.908Z,51.323433
2022-09-29T03:51:54.890Z,51.323406
2022-09-29T03:52:54.899Z,51.323410
2022-09-29T03:53:54.855Z,51.323429
2022-09-29T03:54:54.835Z,51.323437
2022-09-29T03:55:54.818Z,51.323429
2022-09-29T03:56:54.796Z,51.323441
2022-09-29T03:57:54.798Z,51.323456
2022-09-29T03:58:54.757Z,51.323425
2022-09-29T03:59:54.737Z,51.323429
2022-09-29T04:00:54.757Z,51.323460
2022-09-29T04:01:54.743Z,51.323410
2022-09-29T04:02:54.724Z,51.323441
2022-09-29T04:03:54.671Z,51.323437
2022-09-29T04:04:54.645Z,51.323448
2022-09-29T04:05:54.644Z,51.323429
2022-09-29T04:06:54.609Z,51.323444
2022-09-29T04:07:54.613Z,51.323441
2022-09-29T04:08:54.566Z,51.323421
2022-09-29T04:09:54.550Z,51.323402
2022-09-29T04:10:54.532Z,51.323421
2022-09-29T04:11:54.513Z,51.323380
2022-09-29T04:12:54.521Z,51.323383
2022-09-29T04:13:54.473Z,51.323353
2022-09-29T04:14:54.454Z,51.323475
2022-09-29T04:15:54.478Z,51.323437
2022-09-29T04:16:54.416Z,51.323563
2022-09-29T04:17:54.423Z,51.323547
2022-09-29T04:18:54.377Z,51.323441
2022-09-29T04:19:54.357Z,51.323433
2022-09-29T04:20:54.340Z,51.323494
2022-09-29T04:21:54.325Z,51.323494
2022-09-29T04:22:54.335Z,51.323441
2022-09-29T04:23:54.289Z,51.323414
2022-09-29T04:24:54.268Z,51.323460
2022-09-29T04:25:54.251Z,51.323467
2022-09-29T04:26:54.231Z,51.323437
2022-09-29T04:27:54.246Z,51.323387
2022-09-29T04:28:54.197Z,51.323444
2022-09-29T04:29:54.173Z,51.323444
2022-09-29T04:30:54.160Z,51.323456
2022-09-29T04:31:54.199Z,51.323429
2022-09-29T04:32:54.148Z,51.323433
2022-09-29T04:33:54.096Z,51.323456
2022-09-29T04:34:54.081Z,51.323467
2022-09-29T04:35:54.062Z,51.323456
2022-09-29T04:36:54.044Z,51.323463
2022-09-29T04:37:54.050Z,51.323444
2022-09-29T04:38:54.002Z,51.323498
2022-09-29T04:39:53.985Z,51.323475
2022-09-29T04:40:54.031Z,51.323425
2022-09-29T04:41:53.950Z,51.323490
2022-09-29T04:42:53.953Z,51.323475
2022-09-29T04:43:53.909Z,51.323475
2022-09-29T04:44:53.899Z,51.323471
2022-09-29T04:45:53.915Z,51.323452
2022-09-29T04:46:53.857Z,51.323448
2022-09-29T04:47:53.861Z,51.323467
2022-09-29T04:48:53.817Z,51.323479
2022-09-29T04:49:53.799Z,51.323471
2022-09-29T04:50:53.782Z,51.323448
2022-09-29T04:51:53.761Z,51.323471
2022-09-29T04:52:53.773Z,51.323456
2022-09-29T04:53:53.720Z,51.323448
2022-09-29T04:54:53.698Z,51.323429
2022-09-29T04:55:53.687Z,51.323425
2022-09-29T04:56:53.664Z,51.323410
2022-09-29T04:57:53.679Z,51.323444
2022-09-29T04:58:53.623Z,51.323433
2022-09-29T04:59:53.607Z,51.323452
2022-09-29T05:00:53.633Z,51.323448
2022-09-29T05:01:53.644Z,51.323429
2022-09-29T05:02:53.580Z,51.323441
2022-09-29T05:03:53.536Z,51.323433
2022-09-29T05:04:53.520Z,51.323452
2022-09-29T05:05:53.499Z,51.323448
2022-09-29T05:06:53.477Z,51.323460
2022-09-29T05:07:53.503Z,51.323433
2022-09-29T05:08:53.449Z,51.323448
2022-09-29T05:09:53.507Z,51.323437
2022-09-29T05:10:53.412Z,51.323448
2022-09-29T05:11:53.390Z,51.323448
2022-09-29T05:12:53.402Z,51.323448
2022-09-29T05:13:53.352Z,51.323433
2022-09-29T05:14:53.338Z,51.323433
2022-09-29T05:15:53.318Z,51.323425
2022-09-29T05:16:53.303Z,51.323437
2022-09-29T05:17:53.306Z,51.323395
2022-09-29T05:18:53.260Z,51.323406
2022-09-29T05:19:53.258Z,51.323406
2022-09-29T05:21:15.869Z,51.323429
2022-09-29T05:21:55.207Z,51.323410
2022-09-29T05:22:53.211Z,51.323410
2022-09-29T05:23:53.173Z,51.323433
2022-09-29T05:24:53.147Z,51.323471
2022-09-29T05:25:53.127Z,51.323448
2022-09-29T05:26:58.154Z,51.323433
2022-09-29T05:27:55.121Z,51.323452
2022-09-29T05:28:53.074Z,51.323437
2022-09-29T05:29:53.055Z,51.323421
2022-09-29T05:30:53.038Z,51.323429
2022-09-29T05:31:53.130Z,51.323444
2022-09-29T05:32:58.155Z,51.323421
2022-09-29T05:33:54.983Z,51.323425
2022-09-29T05:34:52.964Z,51.323406
2022-09-29T05:35:52.945Z,51.323406
2022-09-29T05:36:52.924Z,51.323395
2022-09-29T05:37:52.958Z,51.323391
2022-09-29T05:38:52.885Z,51.323383
2022-09-29T05:39:52.871Z,51.323402
2022-09-29T05:40:52.870Z,51.323410
2022-09-29T05:41:56.468Z,51.323414
2022-09-29T05:42:53.840Z,51.323414
2022-09-29T05:43:52.791Z,51.323425
2022-09-29T05:44:52.776Z,51.323425
2022-09-29T05:45:52.808Z,51.323399
2022-09-29T05:46:52.749Z,51.323437
2022-09-29T05:47:52.750Z,51.323421
2022-09-29T05:48:52.701Z,51.323406
2022-09-29T05:49:52.682Z,51.323395
2022-09-29T05:50:52.662Z,51.323372
2022-09-29T05:51:52.646Z,51.323391
2022-09-29T05:52:52.655Z,51.323391
2022-09-29T05:53:52.612Z,51.323380
2022-09-29T05:54:52.597Z,51.323395
2022-09-29T05:55:52.579Z,51.323399
2022-09-29T05:56:52.559Z,51.323387
2022-09-29T05:57:52.567Z,51.323418
2022-09-29T05:58:52.551Z,51.323414
2022-09-29T05:59:52.503Z,51.323395
2022-09-29T06:00:52.526Z,51.323399
2022-09-29T06:01:52.529Z,51.323399
2022-09-29T06:02:52.467Z,51.323364
2022-09-29T06:03:52.417Z,51.323387
2022-09-29T06:04:52.391Z,51.323406
2022-09-29T06:05:52.372Z,51.323387
2022-09-29T06:06:52.345Z,51.323391
2022-09-29T06:07:52.348Z,51.323387
2022-09-29T06:08:52.299Z,51.323387
2022-09-29T06:09:52.275Z,51.323395
2022-09-29T06:10:52.253Z,51.323410
2022-09-29T06:11:52.236Z,51.323410
2022-09-29T06:12:52.240Z,51.323349
2022-09-29T06:13:52.198Z,51.323376
2022-09-29T06:14:52.175Z,51.323391
2022-09-29T06:15:52.156Z,51.323372
2022-09-29T06:16:52.162Z,51.323376
2022-09-29T06:17:52.145Z,51.323383
2022-09-29T06:18:52.108Z,51.323383
2022-09-29T06:19:52.084Z,51.323383
2022-09-29T06:20:52.064Z,51.323399
2022-09-29T06:21:52.041Z,51.323391
2022-09-29T06:22:52.051Z,51.323391
2022-09-29T06:23:52.004Z,51.323387
2022-09-29T06:24:51.989Z,51.323380
2022-09-29T06:25:51.973Z,51.323376
2022-09-29T06:26:51.947Z,51.323395
2022-09-29T06:27:51.960Z,51.323406
2022-09-29T06:28:51.922Z,51.323383
2022-09-29T06:29:51.890Z,51.323387
2022-09-29T06:30:51.877Z,51.323380
2022-09-29T06:31:51.909Z,51.323391
2022-09-29T06:32:51.864Z,51.323402
2022-09-29T06:33:51.844Z,51.323391
2022-09-29T06:34:54.725Z,51.323380
2022-09-29T06:35:52.780Z,51.323387
2022-09-29T06:36:51.786Z,51.323387
2022-09-29T06:37:51.775Z,51.323383
2022-09-29T06:38:51.723Z,51.323372
2022-09-29T06:39:51.705Z,51.323364
2022-09-29T06:40:51.712Z,51.323368
2022-09-29T06:41:51.666Z,51.323383
2022-09-29T06:42:51.675Z,51.323372
2022-09-29T06:43:51.631Z,51.323376
2022-09-29T06:44:51.612Z,51.323380
2022-09-29T06:45:51.645Z,51.323395
2022-09-29T06:46:51.577Z,51.323383
2022-09-29T06:47:51.586Z,51.323383
2022-09-29T06:48:51.540Z,51.323387
2022-09-29T06:50:03.816Z,51.323376
2022-09-29T06:51:05.621Z,51.323353
2022-09-29T06:51:53.480Z,51.323349
2022-09-29T06:53:02.951Z,51.323383
2022-09-29T06:54:01.048Z,51.323402
2022-09-29T06:54:52.430Z,51.323391
2022-09-29T06:55:51.411Z,51.323372
2022-09-29T06:56:51.396Z,51.323357
2022-09-29T06:57:51.408Z,51.323380
2022-09-29T06:58:51.360Z,51.323387
2022-09-29T06:59:51.415Z,51.323380
2022-09-29T07:00:51.373Z,51.323368
2022-09-29T07:01:51.803Z,51.323372
2022-09-29T07:02:51.324Z,51.323368
2022-09-29T07:03:51.276Z,51.323368
2022-09-29T07:04:51.257Z,51.323364
2022-09-29T07:06:15.158Z,51.323364
2022-09-29T07:06:53.232Z,51.323330
2022-09-29T07:07:52.645Z,51.323330
2022-09-29T07:08:52.192Z,51.323364
2022-09-29T07:09:51.175Z,51.323357
2022-09-29T07:10:51.156Z,51.323372
2022-09-29T07:11:51.145Z,51.323376
2022-09-29T07:12:51.148Z,51.323372
2022-09-29T07:13:54.185Z,51.323368
2022-09-29T07:14:52.086Z,51.323380
2022-09-29T07:15:51.069Z,51.323360
2022-09-29T07:16:51.090Z,51.323357
2022-09-29T07:17:51.057Z,51.323380
2022-09-29T07:18:51.015Z,51.323429
2022-09-29T07:19:51.002Z,51.323406
2022-09-29T07:20:50.979Z,51.323399
2022-09-29T07:21:50.967Z,51.323372
2022-09-29T07:22:51.012Z,51.323437
2022-09-29T07:23:50.933Z,51.323414
2022-09-29T07:24:50.915Z,51.323410
2022-09-29T07:25:52.340Z,51.323406
2022-09-29T07:26:51.878Z,51.323376
2022-09-29T07:27:50.888Z,51.323372
2022-09-29T07:28:50.844Z,51.323360
2022-09-29T07:30:02.046Z,51.323376
2022-09-29T07:30:53.991Z,51.323391
2022-09-29T07:31:52.517Z,51.323444
2022-09-29T07:33:00.505Z,51.323387
2022-09-29T07:33:52.762Z,51.323402
2022-09-29T07:34:50.744Z,51.323421
2022-09-29T07:35:50.721Z,51.323418
2022-09-29T07:36:50.695Z,51.323429
2022-09-29T07:37:51.715Z,51.323414
2022-09-29T07:38:50.668Z,51.323429
2022-09-29T07:39:50.655Z,51.323441
2022-09-29T07:40:50.749Z,51.323425
2022-09-29T07:41:51.617Z,51.323406
2022-09-29T07:42:50.593Z,51.323399
2022-09-29T07:43:50.628Z,51.323402
2022-09-29T07:44:52.476Z,51.323406
2022-09-29T07:45:51.574Z,51.323418
2022-09-29T07:46:50.525Z,51.323433
2022-09-29T07:47:50.563Z,51.323441
2022-09-29T07:48:50.517Z,51.323444
2022-09-29T07:49:50.482Z,51.323471
2022-09-29T07:50:50.457Z,51.323441
2022-09-29T07:51:50.438Z,51.323433
2022-09-29T07:52:50.441Z,51.323429
2022-09-29T07:53:50.400Z,51.323425
2022-09-29T07:54:50.382Z,51.323406
2022-09-29T07:55:50.366Z,51.323391
2022-09-29T07:56:50.350Z,51.323364
2022-09-29T07:57:50.329Z,51.323402
2022-09-29T07:58:50.336Z,51.323395
2022-09-29T07:59:53.319Z,51.323406
2022-09-29T08:00:51.300Z,51.323437
2022-09-29T08:01:50.320Z,51.323421
2022-09-29T08:02:50.239Z,51.323441
2022-09-29T08:03:50.251Z,51.323433
2022-09-29T08:04:50.212Z,51.323410
2022-09-29T08:05:50.191Z,51.323406
2022-09-29T08:06:50.168Z,51.323421
2022-09-29T08:07:50.175Z,51.323414
2022-09-29T08:09:02.013Z,51.323418
2022-09-29T08:09:52.119Z,51.323441
2022-09-29T08:10:53.624Z,51.323425
2022-09-29T08:12:02.081Z,51.323421
2022-09-29T08:12:52.092Z,51.323421
2022-09-29T08:13:50.050Z,51.323406
2022-09-29T08:14:50.030Z,51.323399
2022-09-29T08:15:50.012Z,51.323410
2022-09-29T08:16:50.052Z,51.323406
2022-09-29T08:17:49.999Z,51.323410
2022-09-29T08:18:49.961Z,51.323406
2022-09-29T08:19:49.941Z,51.323414
2022-09-29T08:20:49.927Z,51.323418
2022-09-29T08:21:49.907Z,51.323437
2022-09-29T08:22:49.916Z,51.323414
2022-09-29T08:23:49.872Z,51.323418
2022-09-29T08:24:49.853Z,51.323429
2022-09-29T08:25:57.630Z,51.323410
2022-09-29T08:26:51.827Z,51.323421
2022-09-29T08:27:55.376Z,51.323425
2022-09-29T08:29:02.239Z,51.323418
2022-09-29T08:29:51.765Z,51.323421
2022-09-29T08:30:49.747Z,51.323441
2022-09-29T08:31:49.759Z,51.323444
2022-09-29T08:32:49.738Z,51.323433
2022-09-29T08:33:49.691Z,51.323418
2022-09-29T08:34:49.668Z,51.323399
2022-09-29T08:35:50.663Z,51.323395
2022-09-29T08:36:49.635Z,51.323414
2022-09-29T08:37:49.643Z,51.323421
2022-09-29T08:38:49.599Z,51.323410
2022-09-29T08:39:49.582Z,51.323418
2022-09-29T08:40:49.638Z,51.323421
2022-09-29T08:41:49.549Z,51.323414
2022-09-29T08:42:49.558Z,51.323418
2022-09-29T08:43:49.517Z,51.323414
2022-09-29T08:44:49.499Z,51.323406
2022-09-29T08:45:58.684Z,51.323414
2022-09-29T08:47:00.468Z,51.323421
2022-09-29T08:47:51.508Z,51.323433
2022-09-29T08:48:57.094Z,51.323421
2022-09-29T08:49:51.412Z,51.323410
2022-09-29T08:50:49.393Z,51.323414
2022-09-29T08:51:49.374Z,51.323425
2022-09-29T08:52:52.621Z,51.323421
2022-09-29T08:54:01.203Z,51.323425
2022-09-29T08:54:51.480Z,51.323460
2022-09-29T08:55:49.305Z,51.323433
2022-09-29T08:56:49.288Z,51.323421
2022-09-29T08:57:49.314Z,51.323429
2022-09-29T08:58:49.251Z,51.323425
2022-09-29T08:59:49.252Z,51.323441
2022-09-29T09:00:50.269Z,51.323421
2022-09-29T09:01:49.205Z,51.323429
2022-09-29T09:02:53.093Z,51.323467
2022-09-29T09:03:51.179Z,51.323437
2022-09-29T09:04:49.148Z,51.323418
2022-09-29T09:05:49.133Z,51.323399
2022-09-29T09:06:49.112Z,51.323418
2022-09-29T09:07:49.123Z,51.323418
2022-09-29T09:08:49.142Z,51.323406
2022-09-29T09:09:49.060Z,51.323437
2022-09-29T09:10:49.046Z,51.323437
2022-09-29T09:11:49.026Z,51.323444
2022-09-29T09:12:49.033Z,51.323452
2022-09-29T09:13:48.983Z,51.323452
2022-09-29T09:14:48.969Z,51.323410
2022-09-29T09:15:48.953Z,51.323418
2022-09-29T09:16:49.033Z,51.323429
2022-09-29T09:17:48.941Z,51.323425
2022-09-29T09:18:48.918Z,51.323414
2022-09-29T09:19:48.877Z,51.323410
2022-09-29T09:20:48.860Z,51.323414
2022-09-29T09:21:48.841Z,51.323437
2022-09-29T09:22:48.850Z,51.323429
2022-09-29T09:23:48.814Z,51.323433
2022-09-29T09:24:48.782Z,51.323437
2022-09-29T09:25:48.762Z,51.323444
2022-09-29T09:26:48.749Z,51.323441
2022-09-29T09:27:48.757Z,51.323444
2022-09-29T09:28:48.709Z,51.323437
2022-09-29T09:29:48.688Z,51.323425
2022-09-29T09:30:48.695Z,51.323433
2022-09-29T09:31:48.651Z,51.323421
2022-09-29T09:32:48.660Z,51.323421
2022-09-29T09:33:57.744Z,51.323425
2022-09-29T09:34:50.602Z,51.323433
2022-09-29T09:35:56.195Z,51.323421
2022-09-29T09:37:02.405Z,51.323421
2022-09-29T09:37:50.603Z,51.323414
2022-09-29T09:38:48.528Z,51.323429
2022-09-29T09:39:48.522Z,51.323429
2022-09-29T09:40:48.487Z,51.323433
2022-09-29T09:41:48.466Z,51.323433
2022-09-29T09:42:48.449Z,51.323433
2022-09-29T09:43:48.458Z,51.323444
2022-09-29T09:44:48.413Z,51.323441
2022-09-29T09:45:48.454Z,51.323429
2022-09-29T09:46:48.374Z,51.323418
2022-09-29T09:47:48.378Z,51.323421
2022-09-29T09:48:48.339Z,51.323414
2022-09-29T09:49:48.314Z,51.323429
2022-09-29T09:50:48.297Z,51.323429
2022-09-29T09:51:48.277Z,51.323429
2022-09-29T09:52:48.261Z,51.323437
2022-09-29T09:53:48.268Z,51.323421
2022-09-29T09:54:48.222Z,51.323395
2022-09-29T09:55:48.206Z,51.323414
2022-09-29T09:56:48.186Z,51.323437
2022-09-29T09:57:48.218Z,51.323414
2022-09-29T09:58:48.150Z,51.323437
2022-09-29T09:59:48.133Z,51.323437
2022-09-29T10:00:48.189Z,51.323429
2022-09-29T10:01:48.143Z,51.323421
2022-09-29T10:02:48.155Z,51.323421
2022-09-29T10:03:48.079Z,51.323433
2022-09-29T10:04:48.033Z,51.323429
2022-09-29T10:05:48.016Z,51.323460
2022-09-29T10:06:47.997Z,51.323429
2022-09-29T10:07:47.980Z,51.323406
2022-09-29T10:08:47.986Z,51.323433
2022-09-29T10:09:48.000Z,51.323402
2022-09-29T10:10:58.131Z,51.323425
2022-09-29T10:11:49.899Z,51.323429
2022-09-29T10:12:47.883Z,51.323433
2022-09-29T10:13:47.887Z,51.323448
2022-09-29T10:14:47.844Z,51.323444
2022-09-29T10:15:47.824Z,51.323421
2022-09-29T10:16:48.888Z,51.323421
2022-09-29T10:17:47.784Z,51.323402
2022-09-29T10:18:47.791Z,51.323402
2022-09-29T10:19:47.746Z,51.323414
2022-09-29T10:20:47.727Z,51.323425
2022-09-29T10:21:47.710Z,51.323406
2022-09-29T10:22:49.790Z,51.323414
2022-09-29T10:23:47.697Z,51.323425
2022-09-29T10:24:47.659Z,51.323433
2022-09-29T10:25:47.631Z,51.323433
2022-09-29T10:26:47.605Z,51.323421
2022-09-29T10:27:48.594Z,51.323437
2022-09-29T10:28:47.610Z,51.323425
2022-09-29T10:29:47.557Z,51.323387
2022-09-29T10:30:47.577Z,51.323383
2022-09-29T10:31:47.521Z,51.323402
2022-09-29T10:32:47.505Z,51.323391
2022-09-29T10:33:47.511Z,51.323380
2022-09-29T10:34:47.474Z,51.323395
2022-09-29T10:35:47.456Z,51.323383
2022-09-29T10:36:47.427Z,51.323357
2022-09-29T10:37:47.418Z,51.323399
2022-09-29T10:38:47.416Z,51.323433
2022-09-29T10:39:47.377Z,51.323441
2022-09-29T10:40:47.354Z,51.323368
2022-09-29T10:41:47.329Z,51.323349
2022-09-29T10:42:47.312Z,51.323395
2022-09-29T10:43:47.322Z,51.323387
2022-09-29T10:44:47.280Z,51.323368
2022-09-29T10:45:47.267Z,51.323376
2022-09-29T10:46:47.236Z,51.323425
2022-09-29T10:47:47.213Z,51.323402
2022-09-29T10:48:47.217Z,51.323368
2022-09-29T10:49:47.170Z,51.323345
2022-09-29T10:50:47.169Z,51.323368
2022-09-29T10:51:47.127Z,51.323360
2022-09-29T10:52:47.109Z,51.323360
2022-09-29T10:53:47.113Z,51.323399
2022-09-29T10:54:47.072Z,51.323387
2022-09-29T10:55:47.050Z,51.323441
2022-09-29T10:56:47.026Z,51.323441
2022-09-29T10:57:47.010Z,51.323380
2022-09-29T10:58:59.135Z,51.323360
2022-09-29T10:59:48.962Z,51.323383
2022-09-29T11:00:46.957Z,51.323387
2022-09-29T11:01:46.922Z,51.323380
2022-09-29T11:02:46.944Z,51.323433
2022-09-29T11:03:46.910Z,51.323437
2022-09-29T11:04:46.856Z,51.323429
2022-09-29T11:05:46.834Z,51.323387
2022-09-29T11:06:46.815Z,51.323410
2022-09-29T11:07:46.792Z,51.323399
2022-09-29T11:08:46.793Z,51.323414
2022-09-29T11:09:46.802Z,51.323406
2022-09-29T11:10:46.724Z,51.323402
2022-09-29T11:11:46.696Z,51.323395
2022-09-29T11:12:46.673Z,51.323399
2022-09-29T11:13:46.687Z,51.323433
2022-09-29T11:14:46.630Z,51.323433
2022-09-29T11:15:46.606Z,51.323425
2022-09-29T11:16:46.652Z,51.323414
2022-09-29T11:17:46.565Z,51.323410
2022-09-29T11:18:46.569Z,51.323429
2022-09-29T11:19:46.519Z,51.323429
2022-09-29T11:20:46.511Z,51.323448
2022-09-29T11:21:46.477Z,51.323448
2022-09-29T11:22:46.450Z,51.323406
2022-09-29T11:23:46.456Z,51.323406